Time;durP1;ratioP1;P1;durP2;ratioP2;P2;SDS_P1;SDS_P2;PMS_P1;PMS_P2;Temp;Humidity;BMP_temperature;BMP_pressure;BME280_temperature;BME280_humidity;BME280_pressure;Samples;Min_cycle;Max_cycle;Signal;HPM_P1;HPM_P2
2022/03/05 00:04:18;;;;;;;24.15;10.20;;;-2.80;99.90;;;;;;20982086;28;20090;-54
2022/03/05 00:14:20;;;;;;;18.48;9.40;;;-2.60;99.90;;;;;;21030472;28;20097;-53
2022/03/05 00:24:24;;;;;;;18.65;7.32;;;-2.30;99.90;;;;;;21064530;28;20105;-55
2022/03/05 00:34:26;;;;;;;17.50;9.02;;;-2.20;99.90;;;;;;21064194;28;20517;-55
2022/03/05 00:44:28;;;;;;;16.27;8.20;;;-2.30;99.90;;;;;;21064091;28;20032;-55
2022/03/05 00:54:31;;;;;;;17.25;8.20;;;-2.30;99.90;;;;;;21063234;28;20040;-53
2022/03/05 01:04:34;;;;;;;15.85;8.30;;;-2.30;99.90;;;;;;21062762;28;20085;-56
2022/03/05 01:14:37;;;;;;;17.92;8.77;;;-2.10;99.90;;;;;;21009997;28;20044;-56
2022/03/05 01:24:39;;;;;;;14.77;8.18;;;-2.00;99.90;;;;;;20961684;28;20040;-56
2022/03/05 01:34:42;;;;;;;16.95;7.18;;;-2.00;99.90;;;;;;20961952;28;20044;-57
2022/03/05 01:44:45;;;;;;;18.83;9.07;;;-2.00;99.90;;;;;;20991589;28;20037;-56
2022/03/05 01:54:48;;;;;;;17.13;7.80;;;-2.10;99.90;;;;;;20992965;28;20094;-55
2022/03/05 02:04:52;;;;;;;14.30;7.65;;;-2.30;99.90;;;;;;20991637;28;20040;-56
2022/03/05 02:14:56;;;;;;;15.50;8.43;;;-2.40;99.90;;;;;;21044624;28;20048;-56
2022/03/05 02:24:59;;;;;;;16.85;8.90;;;-3.00;99.90;;;;;;21072814;28;20036;-54
2022/03/05 02:35:02;;;;;;;17.48;8.93;;;-3.50;99.90;;;;;;21072165;28;20058;-55
2022/03/05 02:45:05;;;;;;;17.88;9.05;;;-3.90;99.90;;;;;;21071331;28;20097;-52
2022/03/05 02:55:08;;;;;;;15.20;7.03;;;-3.80;99.90;;;;;;21070022;28;20036;-56
2022/03/05 03:05:13;;;;;;;17.13;8.45;;;-3.50;99.90;;;;;;21070434;28;20096;-54
2022/03/05 03:15:17;;;;;;;19.25;8.82;;;-3.20;99.90;;;;;;21010425;28;20045;-56
2022/03/05 03:25:20;;;;;;;15.52;8.05;;;-3.20;99.90;;;;;;20984081;28;20044;-54
2022/03/05 03:35:23;;;;;;;18.23;8.73;;;-3.00;99.90;;;;;;20984809;28;20044;-56
2022/03/05 03:45:26;;;;;;;18.27;8.48;;;-2.70;99.90;;;;;;20983073;28;20441;-57
2022/03/05 03:55:28;;;;;;;16.70;8.55;;;-2.70;99.90;;;;;;20982325;28;20086;-57
2022/03/05 04:05:32;;;;;;;17.40;8.40;;;-2.80;99.90;;;;;;20982504;28;20564;-57
2022/03/05 04:15:34;;;;;;;16.63;9.40;;;-2.80;99.90;;;;;;21026171;28;20052;-56
2022/03/05 04:25:37;;;;;;;18.10;8.60;;;-2.80;99.90;;;;;;21064560;28;20040;-55
2022/03/05 04:35:39;;;;;;;15.65;8.48;;;-2.70;99.90;;;;;;21064397;28;20028;-54
2022/03/05 04:45:42;;;;;;;21.92;8.68;;;-2.60;99.90;;;;;;21063452;28;20423;-54
2022/03/05 04:55:44;;;;;;;14.55;7.93;;;-2.70;99.90;;;;;;21063348;28;20437;-54
2022/03/05 05:05:48;;;;;;;19.88;9.75;;;-2.90;99.90;;;;;;21062599;28;20171;-55
2022/03/05 05:15:50;;;;;;;17.95;8.40;;;-3.30;99.90;;;;;;21007643;28;20090;-53
2022/03/05 05:25:53;;;;;;;15.77;8.07;;;-3.50;99.90;;;;;;20994337;28;20322;-52
2022/03/05 05:35:55;;;;;;;17.40;8.57;;;-3.60;99.90;;;;;;20992896;28;20059;-53
2022/03/05 05:45:58;;;;;;;18.77;8.85;;;-3.70;99.90;;;;;;20992304;28;20036;-54
2022/03/05 05:56:00;;;;;;;16.83;7.75;;;-3.70;99.90;;;;;;20991777;28;20517;-56
2022/03/05 06:06:04;;;;;;;18.00;8.38;;;-3.90;99.90;;;;;;20974333;28;20036;-56
2022/03/05 06:16:06;;;;;;;17.42;9.20;;;-3.80;99.90;;;;;;21055384;28;20092;-53
2022/03/05 06:26:10;;;;;;;15.75;8.27;;;-3.60;99.90;;;;;;21072539;28;20089;-54
2022/03/05 06:36:13;;;;;;;17.45;8.60;;;-3.30;99.90;;;;;;21072095;28;20063;-55
2022/03/05 06:46:16;;;;;;;20.15;9.65;;;-3.10;99.90;;;;;;21071864;28;20035;-55
2022/03/05 06:56:18;;;;;;;17.55;9.02;;;-2.90;99.90;;;;;;21070414;28;20121;-54
2022/03/05 07:06:22;;;;;;;15.52;8.27;;;-2.60;99.90;;;;;;21071354;28;20036;-57
2022/03/05 07:16:25;;;;;;;15.20;8.25;;;-2.30;99.90;;;;;;20985310;28;20040;-55
2022/03/05 07:26:27;;;;;;;19.33;9.18;;;-1.80;99.90;;;;;;20984616;28;20045;-52
2022/03/05 07:36:30;;;;;;;15.48;8.55;;;-1.20;99.90;;;;;;20983055;28;20040;-53
2022/03/05 07:46:36;;;;;;;18.08;8.75;;;-0.70;99.90;;;;;;20966447;28;20492;-54
2022/03/05 07:56:38;;;;;;;15.80;8.40;;;0.00;99.90;;;;;;20982511;28;20432;-56
2022/03/05 08:06:42;;;;;;;18.05;9.95;;;0.80;99.90;;;;;;20981454;28;20032;-52
2022/03/05 08:16:44;;;;;;;17.27;9.57;;;1.80;99.90;;;;;;21050322;28;20044;-56
2022/03/05 08:26:47;;;;;;;19.33;9.23;;;2.70;99.90;;;;;;21065228;28;20032;-56
2022/03/05 08:36:49;;;;;;;16.45;9.93;;;3.20;99.20;;;;;;21065158;28;20028;-57
2022/03/05 08:46:52;;;;;;;19.17;10.38;;;3.90;97.70;;;;;;21069953;28;20040;-57
2022/03/05 08:56:54;;;;;;;18.52;9.98;;;4.10;97.90;;;;;;21080977;28;20085;-58
2022/03/05 09:06:59;;;;;;;19.15;10.52;;;4.30;97.40;;;;;;21078876;28;20041;-55
2022/03/05 09:17:01;;;;;;;24.23;10.20;;;4.10;95.90;;;;;;21005774;28;20045;-55
2022/03/05 09:27:05;;;;;;;19.85;10.10;;;3.70;96.40;;;;;;20994490;28;20549;-58
2022/03/05 09:37:07;;;;;;;19.20;10.77;;;3.40;96.10;;;;;;20992505;28;20044;-55
2022/03/05 09:47:11;;;;;;;22.98;11.23;;;3.90;95.70;;;;;;20992356;28;20044;-57
2022/03/05 09:57:15;;;;;;;19.08;10.80;;;4.10;97.00;;;;;;20991051;28;20403;-57
2022/03/05 10:07:20;;;;;;;17.13;9.45;;;4.10;96.20;;;;;;20990965;28;20036;-58
2022/03/05 10:17:23;;;;;;;20.45;11.20;;;4.70;95.00;;;;;;21064543;28;20129;-54
2022/03/05 10:27:30;;;;;;;20.90;11.10;;;4.20;96.20;;;;;;21072739;28;20044;-55
2022/03/05 10:37:34;;;;;;;21.27;11.60;;;4.00;96.10;;;;;;21071938;28;20036;-55
2022/03/05 10:47:39;;;;;;;24.85;12.98;;;3.30;96.10;;;;;;21071563;28;20399;-57
2022/03/05 10:57:59;;;;;;;21.88;11.20;;;2.60;96.70;;;;;;21054407;28;20065;-54
2022/03/05 11:08:04;;;;;;;21.75;12.30;;;2.60;98.00;;;;;;20980314;28;20101;-57
2022/03/05 11:18:07;;;;;;;20.25;11.18;;;3.50;96.60;;;;;;21066729;28;20044;-58
2022/03/05 11:28:19;;;;;;;17.83;9.50;;;4.70;95.40;;;;;;21051510;28;20081;-59
2022/03/05 11:38:35;;;;;;;;;;;5.10;92.80;;;;;;21067971;28;20028;-58
2022/03/05 11:48:37;;;;;;;17.00;9.50;;;4.40;93.70;;;;;;21066652;28;19965;-56
2022/03/05 11:58:40;;;;;;;15.68;8.20;;;4.10;92.00;;;;;;21049235;28;20036;-58
2022/03/05 12:08:50;;;;;;;18.30;8.52;;;3.90;93.30;;;;;;21063097;28;20028;-57
2022/03/05 12:18:56;;;;;;;15.35;8.63;;;4.90;93.00;;;;;;20965103;28;20098;-58
2022/03/05 12:28:59;;;;;;;15.63;8.52;;;5.50;91.60;;;;;;20982310;28;20049;-57
2022/03/05 12:39:02;;;;;;;14.10;8.38;;;5.70;91.00;;;;;;20964473;28;20044;-59
2022/03/05 12:49:06;;;;;;;16.02;9.02;;;5.90;89.80;;;;;;20980523;28;20488;-59
2022/03/05 12:59:09;;;;;;;20.63;9.27;;;5.70;89.40;;;;;;20964567;28;20040;-60
2022/03/05 13:09:16;;;;;;;16.92;8.73;;;6.00;87.90;;;;;;20987651;28;20402;-59
2022/03/05 13:19:19;;;;;;;18.40;9.02;;;5.80;86.50;;;;;;21063524;28;20436;-58
2022/03/05 13:29:22;;;;;;;16.50;9.00;;;5.90;88.90;;;;;;21045858;28;20825;-60
2022/03/05 13:39:26;;;;;;;15.18;9.10;;;6.00;88.20;;;;;;21073835;28;20437;-60
2022/03/05 13:49:29;;;;;;;17.95;9.13;;;5.70;86.90;;;;;;21060656;28;20479;-58
2022/03/05 13:59:39;;;;;;;18.70;9.52;;;5.00;86.60;;;;;;21075784;28;20376;-58
2022/03/05 14:09:46;;;;;;;13.10;7.80;;;4.10;88.70;;;;;;21063124;28;20093;-57
2022/03/05 14:19:49;;;;;;;17.98;9.63;;;3.40;90.50;;;;;;20989905;28;20045;-55
2022/03/05 14:29:51;;;;;;;19.30;10.05;;;3.20;91.10;;;;;;20989519;28;20327;-57
2022/03/05 14:39:54;;;;;;;19.42;9.98;;;2.80;91.40;;;;;;20988673;28;20040;-57
2022/03/05 14:49:58;;;;;;;20.75;10.95;;;2.50;91.60;;;;;;20987262;28;20432;-57
2022/03/05 15:00:01;;;;;;;19.52;9.90;;;2.10;91.90;;;;;;20987043;28;20484;-56
2022/03/05 15:10:06;;;;;;;22.13;10.30;;;1.80;92.70;;;;;;21000291;28;20100;-56
2022/03/05 15:20:10;;;;;;;19.98;10.82;;;1.50;93.00;;;;;;21023121;28;20048;-56
2022/03/05 15:30:13;;;;;;;20.92;10.10;;;1.20;93.30;;;;;;20984103;28;20078;-56
2022/03/05 15:40:16;;;;;;;23.10;11.32;;;0.70;94.00;;;;;;20983501;28;20040;-53
2022/03/05 15:50:19;;;;;;;22.88;11.18;;;0.30;94.60;;;;;;20982603;28;20032;-57
2022/03/05 16:00:22;;;;;;;22.70;11.52;;;-0.20;95.30;;;;;;20981689;28;20029;-56
2022/03/05 16:10:25;;;;;;;20.33;11.45;;;-0.70;96.20;;;;;;20999031;28;20039;-56
2022/03/05 16:20:28;;;;;;;25.70;11.98;;;-1.20;97.00;;;;;;21064514;28;20114;-57
2022/03/05 16:30:33;;;;;;;23.30;12.07;;;-1.60;97.60;;;;;;21064612;28;20109;-56
2022/03/05 16:40:35;;;;;;;23.00;11.55;;;-1.90;98.40;;;;;;21064014;28;20044;-57
2022/03/05 16:50:39;;;;;;;24.30;11.40;;;-2.20;99.10;;;;;;21063809;28;20036;-55
2022/03/05 17:00:41;;;;;;;25.52;11.10;;;-2.40;99.90;;;;;;21064278;28;20028;-54
2022/03/05 17:10:44;;;;;;;21.75;9.75;;;-2.70;99.90;;;;;;21012476;28;20081;-54
2022/03/05 17:20:48;;;;;;;22.25;10.05;;;-2.90;99.90;;;;;;21050065;28;20102;-56
2022/03/05 17:30:51;;;;;;;23.50;10.82;;;-3.10;99.90;;;;;;21013968;28;20040;-53
2022/03/05 17:40:54;;;;;;;24.15;11.77;;;-2.90;99.90;;;;;;21077327;28;20040;-57
2022/03/05 17:50:56;;;;;;;28.00;11.63;;;-2.60;99.90;;;;;;21076315;28;20066;-56
2022/03/05 18:00:59;;;;;;;25.65;12.07;;;-2.50;99.90;;;;;;21075820;28;20036;-57
2022/03/05 18:11:02;;;;;;;21.90;10.98;;;-2.80;99.90;;;;;;21053055;28;20428;-53
2022/03/05 18:21:04;;;;;;;23.17;10.77;;;-2.90;99.90;;;;;;20989906;28;20106;-55
2022/03/05 18:31:08;;;;;;;22.67;11.50;;;-2.80;99.90;;;;;;20989968;28;20373;-56
2022/03/05 18:41:12;;;;;;;22.00;11.48;;;-2.60;99.90;;;;;;20988436;28;20036;-57
2022/03/05 18:51:15;;;;;;;26.27;12.15;;;-2.40;99.90;;;;;;20988356;28;20090;-52
2022/03/05 19:01:19;;;;;;;23.27;11.75;;;-2.20;99.90;;;;;;20970495;28;20090;-58
2022/03/05 19:11:22;;;;;;;25.60;11.75;;;-2.00;99.90;;;;;;21011012;28;20035;-53
2022/03/05 19:21:26;;;;;;;23.23;11.85;;;-1.90;99.90;;;;;;21052616;28;20445;-52
2022/03/05 19:31:28;;;;;;;21.77;11.13;;;-1.80;99.90;;;;;;21050532;28;20081;-56
2022/03/05 19:41:33;;;;;;;24.52;12.05;;;-1.80;99.90;;;;;;21067867;28;20371;-57
2022/03/05 19:51:36;;;;;;;22.88;11.45;;;-1.80;99.90;;;;;;21066822;28;20040;-53
2022/03/05 20:01:41;;;;;;;20.95;10.50;;;-1.80;99.90;;;;;;21065507;28;20039;-55
2022/03/05 20:11:44;;;;;;;20.35;11.00;;;-1.80;99.90;;;;;;21065421;28;20104;-56
2022/03/05 20:21:47;;;;;;;17.27;9.13;;;-1.90;99.90;;;;;;21065188;28;20032;-56
2022/03/05 20:31:49;;;;;;;20.83;10.13;;;-2.00;99.90;;;;;;21065750;28;20474;-54
2022/03/05 20:41:53;;;;;;;17.90;9.40;;;-2.00;99.90;;;;;;21067044;28;20089;-56
2022/03/05 20:51:56;;;;;;;18.88;9.63;;;-2.10;99.90;;;;;;21081258;28;20032;-56
2022/03/05 21:01:58;;;;;;;17.80;9.40;;;-2.10;99.90;;;;;;21080244;28;20065;-57
2022/03/05 21:12:00;;;;;;;19.92;9.63;;;-2.20;99.90;;;;;;21048926;28;20106;-57
2022/03/05 21:22:03;;;;;;;20.38;9.15;;;-2.30;99.90;;;;;;20994681;28;20561;-57
2022/03/05 21:32:07;;;;;;;21.73;10.27;;;-2.30;99.90;;;;;;20994955;28;20086;-56
2022/03/05 21:42:11;;;;;;;19.52;9.48;;;-2.30;99.90;;;;;;20993341;28;20036;-53
2022/03/05 21:52:13;;;;;;;18.50;9.95;;;-2.30;99.90;;;;;;20992530;28;20404;-54
2022/03/05 22:02:16;;;;;;;22.42;9.57;;;-2.30;99.90;;;;;;20991096;28;20028;-57
2022/03/05 22:12:19;;;;;;;20.30;10.00;;;-2.30;99.90;;;;;;21024170;28;20047;-53
2022/03/05 22:22:21;;;;;;;20.52;9.90;;;-2.40;99.90;;;;;;21074467;28;20617;-56
2022/03/05 22:32:24;;;;;;;19.45;8.88;;;-2.40;99.90;;;;;;21073674;28;20446;-57
2022/03/05 22:42:27;;;;;;;19.35;8.65;;;-2.40;99.90;;;;;;21074543;28;20043;-56
2022/03/05 22:52:29;;;;;;;18.02;8.38;;;-2.40;99.90;;;;;;21071649;28;20367;-56
2022/03/05 23:12:53;;;;;;;16.13;8.25;;;-2.60;99.90;;;;;;21069957;28;20109;-53
2022/03/05 23:22:55;;;;;;;16.35;7.70;;;-2.90;99.90;;;;;;21070956;28;20089;-55
2022/03/05 23:32:59;;;;;;;17.55;7.93;;;-3.30;99.90;;;;;;21068707;28;20097;-55
2022/03/05 23:43:02;;;;;;;20.05;9.82;;;-3.70;99.90;;;;;;21067924;28;20588;-56
2022/03/05 23:53:04;;;;;;;25.10;11.20;;;-4.20;99.90;;;;;;21066999;28;20040;-52
